Terminal Aerodrome Forecast
Issued by NWS

Home | Current Version | Previous Version | Text Only | Print | Product List | Glossary On
Versions: 1 2 3 4 5 6 7 8 9 10 11 12 13 14 15 16 17 18
000
FTUS43 KEAX 282300
TAFSTJ
TAF
KSTJ 282322Z 2900/2924 16008KT P6SM SKC
     FM290200 15008KT P6SM SCT060 BKN120
     FM291000 17010KT P6SM VCTS SCT050CB BKN100
     FM292100 20010KT P6SM -TSRA BKN050CB=

USA.gov is the U.S. government's official web portal to all federal, state and local government web resources and services.